Terminal Aerodrome Forecast
Issued by NWS

Current Version | Previous Version | Text Only | Print | Product List | Glossary On
Versions: 1 2 3 4 5 6 7 8 9 10 11 12 13 14 15 16 17 18 19 20 21 22 23 24 25 26 27 28 29 30 31 32 33 34 35 36
096
FTUS41 KOKX 262139 AAB
TAFGON
TAF AMD
KGON 262139Z 2622/2718 25014G20KT P6SM FEW060 SCT250
     FM270200 VRB04KT P6SM BKN200
     FM271400 11006KT P6SM SCT035 SCT080 BKN120
     FM271600 12006KT 4SM -SHRA FEW010 SCT025 BKN060=

USA.gov is the U.S. government's official web portal to all federal, state and local government web resources and services.